Time;durP1;ratioP1;P1;durP2;ratioP2;P2;SDS_P1;SDS_P2;PMS_P1;PMS_P2;Temp;Humidity;BMP_temperature;BMP_pressure;BME280_temperature;BME280_humidity;BME280_pressure;Samples;Min_cycle;Max_cycle;Signal;HPM_P1;HPM_P2
2023/07/18 00:02:05;;;;;;;2.78;1.42;;;;;;;;;;4929530;28;99834;-79
2023/07/18 00:04:32;;;;;;;4.72;1.75;;;;;;;;;;4930598;28;98032;-78
2023/07/18 00:06:59;;;;;;;11.65;1.95;;;;;;;;;;4929621;28;98602;-78
2023/07/18 00:09:25;;;;;;;6.10;3.20;;;;;;;;;;4929952;28;99907;-78
2023/07/18 00:11:51;;;;;;;8.98;1.55;;;;;;;;;;4931343;28;98244;-78
2023/07/18 00:14:18;;;;;;;8.07;2.05;;;;;;;;;;4917583;28;99493;-78
2023/07/18 00:16:44;;;;;;;4.63;1.77;;;;;;;;;;4914755;28;99333;-79
2023/07/18 00:19:12;;;;;;;10.43;1.65;;;;;;;;;;4925100;28;99861;-78
2023/07/18 00:21:39;;;;;;;9.25;1.75;;;;;;;;;;4930310;28;99858;-77
2023/07/18 00:24:05;;;;;;;6.32;1.92;;;;;;;;;;4929778;28;98239;-79
2023/07/18 00:26:32;;;;;;;7.28;1.67;;;;;;;;;;4928563;28;99033;-79
2023/07/18 00:28:59;;;;;;;6.13;1.85;;;;;;;;;;4931170;28;99905;-78
2023/07/18 00:31:26;;;;;;;4.47;1.92;;;;;;;;;;4930388;28;98149;-80
2023/07/18 00:33:53;;;;;;;3.65;1.80;;;;;;;;;;4929834;28;98662;-78
2023/07/18 00:36:20;;;;;;;10.60;1.92;;;;;;;;;;4931160;28;98889;-78
2023/07/18 00:38:47;;;;;;;4.97;1.80;;;;;;;;;;4934126;28;98296;-79
2023/07/18 00:41:13;;;;;;;11.55;1.80;;;;;;;;;;4931012;28;97988;-78
2023/07/18 00:43:39;;;;;;;5.32;1.60;;;;;;;;;;4932341;28;98230;-78
2023/07/18 00:46:08;;;;;;;2.00;1.30;;;;;;;;;;4933960;28;99392;-79
2023/07/18 00:48:36;;;;;;;4.18;1.85;;;;;;;;;;4932314;28;99869;-78
2023/07/18 00:51:07;;;;;;;9.15;1.63;;;;;;;;;;4931300;28;98305;-80
2023/07/18 00:53:35;;;;;;;11.10;2.00;;;;;;;;;;4932955;28;98521;-78
2023/07/18 00:56:02;;;;;;;7.85;1.33;;;;;;;;;;4932449;28;98892;-77
2023/07/18 00:58:30;;;;;;;4.05;1.55;;;;;;;;;;4933495;28;97926;-79
2023/07/18 01:00:59;;;;;;;8.65;2.00;;;;;;;;;;4935935;28;100323;-78
2023/07/18 01:03:25;;;;;;;2.33;1.20;;;;;;;;;;4932051;28;98336;-79
2023/07/18 01:05:53;;;;;;;9.50;1.60;;;;;;;;;;4931691;28;98782;-78
2023/07/18 01:08:19;;;;;;;3.63;1.20;;;;;;;;;;4933046;28;99320;-80
2023/07/18 01:10:46;;;;;;;5.85;1.48;;;;;;;;;;4932690;28;99320;-78
2023/07/18 01:13:13;;;;;;;6.47;1.70;;;;;;;;;;4932928;28;98563;-79
2023/07/18 01:15:39;;;;;;;4.28;1.52;;;;;;;;;;4931450;28;98995;-79
2023/07/18 01:18:08;;;;;;;9.48;1.40;;;;;;;;;;4933976;28;98252;-78
2023/07/18 01:20:37;;;;;;;15.38;2.05;;;;;;;;;;4931845;28;100874;-77
2023/07/18 01:23:03;;;;;;;7.00;1.90;;;;;;;;;;4932776;28;100836;-77
2023/07/18 01:25:30;;;;;;;5.63;1.73;;;;;;;;;;4931529;28;100666;-79
2023/07/18 01:28:01;;;;;;;8.02;1.83;;;;;;;;;;4932386;28;99089;-79
2023/07/18 01:30:27;;;;;;;10.57;1.80;;;;;;;;;;4930556;28;98367;-79
2023/07/18 01:32:54;;;;;;;7.97;1.63;;;;;;;;;;4933281;28;98410;-78
2023/07/18 01:35:23;;;;;;;7.50;1.60;;;;;;;;;;4936674;28;99175;-79
2023/07/18 01:37:51;;;;;;;3.97;1.80;;;;;;;;;;4951474;28;98409;-79
2023/07/18 01:40:20;;;;;;;4.05;1.50;;;;;;;;;;4951240;28;98605;-79
2023/07/18 01:42:48;;;;;;;2.28;1.60;;;;;;;;;;4935666;28;98835;-78
2023/07/18 01:45:15;;;;;;;9.38;1.92;;;;;;;;;;4933710;28;98263;-78
2023/07/18 01:47:41;;;;;;;6.43;1.50;;;;;;;;;;4931266;28;100613;-79
2023/07/18 01:50:08;;;;;;;5.72;1.90;;;;;;;;;;4931528;28;98228;-79
2023/07/18 01:52:36;;;;;;;9.15;2.33;;;;;;;;;;4931767;28;98503;-78
2023/07/18 01:55:03;;;;;;;4.10;1.65;;;;;;;;;;4931186;28;101146;-79
2023/07/18 01:57:30;;;;;;;3.85;2.10;;;;;;;;;;4932021;28;98800;-79
2023/07/18 02:00:00;;;;;;;5.05;1.70;;;;;;;;;;4930503;28;101033;-79
2023/07/18 02:02:28;;;;;;;6.65;2.08;;;;;;;;;;4930637;28;101929;-78
2023/07/18 02:04:58;;;;;;;4.93;1.80;;;;;;;;;;4929371;28;98362;-79
2023/07/18 02:07:27;;;;;;;5.40;1.50;;;;;;;;;;4932724;28;99421;-79
2023/07/18 02:09:53;;;;;;;3.60;1.67;;;;;;;;;;4932736;28;98459;-78
2023/07/18 02:12:19;;;;;;;2.30;1.58;;;;;;;;;;4929667;28;98642;-78
2023/07/18 02:14:46;;;;;;;7.93;2.25;;;;;;;;;;4923708;28;102348;-79
2023/07/18 02:17:13;;;;;;;4.20;1.45;;;;;;;;;;4932160;28;98267;-78
2023/07/18 02:19:40;;;;;;;8.43;1.65;;;;;;;;;;4931295;28;99245;-80
2023/07/18 02:22:06;;;;;;;9.98;1.63;;;;;;;;;;4930354;28;100244;-79
2023/07/18 02:24:33;;;;;;;6.18;1.92;;;;;;;;;;4931683;28;98252;-78
2023/07/18 02:27:01;;;;;;;1.45;1.35;;;;;;;;;;4933496;28;99563;-78
2023/07/18 02:29:28;;;;;;;7.10;2.10;;;;;;;;;;4929606;28;98433;-78
2023/07/18 02:31:54;;;;;;;6.05;1.92;;;;;;;;;;4932030;28;98816;-78
2023/07/18 02:34:22;;;;;;;6.85;2.10;;;;;;;;;;4929423;28;100255;-79
2023/07/18 02:36:49;;;;;;;3.15;1.63;;;;;;;;;;4931857;28;98506;-79
2023/07/18 02:39:15;;;;;;;7.78;1.73;;;;;;;;;;4931572;28;98669;-78
2023/07/18 02:41:41;;;;;;;4.55;1.80;;;;;;;;;;4930607;28;100195;-78
2023/07/18 02:44:08;;;;;;;5.00;2.13;;;;;;;;;;4932219;28;98169;-79
2023/07/18 02:46:34;;;;;;;4.07;1.80;;;;;;;;;;4927482;28;97984;-78
2023/07/18 02:49:02;;;;;;;3.72;1.70;;;;;;;;;;4914891;28;99821;-78
2023/07/18 02:51:30;;;;;;;9.95;2.50;;;;;;;;;;4912246;28;98736;-78
2023/07/18 02:53:57;;;;;;;4.88;2.45;;;;;;;;;;4927486;28;98708;-78
2023/07/18 02:56:23;;;;;;;11.27;1.63;;;;;;;;;;4930976;28;98160;-80
2023/07/18 02:58:50;;;;;;;8.48;2.22;;;;;;;;;;4946569;28;99681;-80
2023/07/18 03:01:19;;;;;;;5.57;2.17;;;;;;;;;;4929255;28;98943;-80
2023/07/18 03:03:46;;;;;;;6.80;2.10;;;;;;;;;;4931534;28;99344;-79
2023/07/18 03:06:16;;;;;;;5.75;2.15;;;;;;;;;;4930109;28;98241;-79
2023/07/18 03:08:43;;;;;;;6.43;2.80;;;;;;;;;;4930506;28;98779;-78
2023/07/18 03:11:09;;;;;;;4.28;1.98;;;;;;;;;;4933416;28;98302;-78
2023/07/18 03:13:36;;;;;;;3.45;1.80;;;;;;;;;;4930758;28;100125;-77
2023/07/18 03:16:04;;;;;;;5.35;2.25;;;;;;;;;;4930424;28;98223;-79
2023/07/18 03:18:31;;;;;;;9.27;2.70;;;;;;;;;;4930603;28;99629;-79
2023/07/18 03:20:58;;;;;;;13.02;2.55;;;;;;;;;;4931094;28;100238;-79
2023/07/18 03:23:25;;;;;;;2.30;2.10;;;;;;;;;;4929972;28;98362;-79
2023/07/18 03:25:51;;;;;;;4.70;2.30;;;;;;;;;;4929981;28;100541;-79
2023/07/18 03:28:19;;;;;;;6.35;2.20;;;;;;;;;;4929504;28;100174;-79
2023/07/18 03:30:46;;;;;;;5.75;2.47;;;;;;;;;;4930387;28;100272;-78
2023/07/18 03:33:12;;;;;;;6.10;2.65;;;;;;;;;;4933788;28;98425;-79
2023/07/18 03:35:39;;;;;;;2.63;2.00;;;;;;;;;;4929949;28;98909;-78
2023/07/18 03:38:05;;;;;;;2.75;2.30;;;;;;;;;;4932059;28;98445;-78
2023/07/18 03:40:32;;;;;;;5.50;2.70;;;;;;;;;;4931759;28;99993;-79
2023/07/18 03:42:59;;;;;;;2.58;2.38;;;;;;;;;;4931220;28;98263;-80
2023/07/18 03:45:25;;;;;;;9.00;3.08;;;;;;;;;;4929995;28;98881;-79
2023/07/18 03:47:52;;;;;;;4.85;1.95;;;;;;;;;;4930457;28;100319;-78
2023/07/18 03:50:18;;;;;;;5.25;2.50;;;;;;;;;;4929015;28;98676;-78
2023/07/18 03:52:45;;;;;;;9.10;2.40;;;;;;;;;;4930844;28;99454;-79
2023/07/18 03:55:11;;;;;;;2.63;2.08;;;;;;;;;;4933475;28;100489;-79
2023/07/18 03:57:39;;;;;;;6.88;3.08;;;;;;;;;;4929920;28;99650;-79
2023/07/18 04:00:13;;;;;;;10.90;2.90;;;;;;;;;;4930670;28;99890;-79
2023/07/18 04:02:40;;;;;;;6.38;2.22;;;;;;;;;;4930613;28;98235;-79
2023/07/18 04:05:13;;;;;;;11.53;2.23;;;;;;;;;;4929778;28;99391;-79
2023/07/18 04:07:41;;;;;;;6.43;2.50;;;;;;;;;;4928938;28;99882;-80
2023/07/18 04:10:07;;;;;;;5.05;2.33;;;;;;;;;;4931134;28;98229;-78
2023/07/18 04:12:35;;;;;;;3.90;2.10;;;;;;;;;;4930324;28;99121;-79
2023/07/18 04:15:02;;;;;;;5.28;2.40;;;;;;;;;;4930296;28;99104;-77
2023/07/18 04:17:29;;;;;;;8.60;2.45;;;;;;;;;;4935023;28;98061;-79
2023/07/18 04:19:59;;;;;;;8.38;2.45;;;;;;;;;;4934761;28;100186;-76
2023/07/18 04:22:26;;;;;;;4.90;2.60;;;;;;;;;;4935115;28;98349;-80
2023/07/18 04:24:53;;;;;;;10.18;2.38;;;;;;;;;;4934450;28;99748;-79
2023/07/18 04:27:20;;;;;;;8.55;2.28;;;;;;;;;;4935156;28;99979;-79
2023/07/18 04:29:47;;;;;;;9.10;2.47;;;;;;;;;;4934064;28;97969;-79
2023/07/18 04:32:14;;;;;;;4.95;2.20;;;;;;;;;;4932535;28;99795;-78
2023/07/18 04:34:40;;;;;;;3.85;1.80;;;;;;;;;;4932799;28;99963;-78
2023/07/18 04:37:08;;;;;;;8.00;2.55;;;;;;;;;;4936950;28;98243;-78
2023/07/18 04:39:34;;;;;;;6.00;2.10;;;;;;;;;;4932088;28;100114;-78
2023/07/18 04:42:01;;;;;;;2.15;1.95;;;;;;;;;;4934188;28;98498;-78
2023/07/18 04:44:27;;;;;;;6.45;2.17;;;;;;;;;;4932987;28;99632;-78
2023/07/18 04:46:54;;;;;;;4.45;1.88;;;;;;;;;;4932629;28;98950;-80
2023/07/18 04:49:22;;;;;;;3.10;2.00;;;;;;;;;;4933223;28;98216;-79
2023/07/18 04:51:51;;;;;;;10.70;2.30;;;;;;;;;;4933300;28;99307;-78
2023/07/18 04:54:18;;;;;;;2.80;2.55;;;;;;;;;;4932194;28;99196;-79
2023/07/18 04:56:45;;;;;;;5.35;2.53;;;;;;;;;;4932711;28;98243;-79
2023/07/18 04:59:11;;;;;;;4.93;2.33;;;;;;;;;;4937126;28;98963;-80
2023/07/18 05:01:39;;;;;;;8.98;2.42;;;;;;;;;;4932313;28;98517;-79
2023/07/18 05:04:06;;;;;;;4.85;2.20;;;;;;;;;;4933124;28;98505;-78
2023/07/18 05:06:32;;;;;;;12.00;2.30;;;;;;;;;;4932231;28;100677;-78
2023/07/18 05:08:59;;;;;;;2.72;1.92;;;;;;;;;;4932328;28;98315;-79
2023/07/18 05:11:25;;;;;;;2.63;1.95;;;;;;;;;;4932536;28;99546;-78
2023/07/18 05:13:52;;;;;;;2.58;2.05;;;;;;;;;;4933400;28;99110;-79
2023/07/18 05:16:18;;;;;;;5.88;2.30;;;;;;;;;;4932653;28;98271;-79
2023/07/18 05:18:45;;;;;;;6.50;1.88;;;;;;;;;;4932579;28;99611;-79
2023/07/18 05:21:12;;;;;;;8.38;2.55;;;;;;;;;;4934531;28;99825;-79
2023/07/18 05:23:38;;;;;;;3.58;2.20;;;;;;;;;;4932273;28;98480;-78
2023/07/18 05:26:09;;;;;;;6.47;2.13;;;;;;;;;;4932396;28;100239;-79
2023/07/18 05:28:35;;;;;;;7.55;2.00;;;;;;;;;;4931955;28;98229;-79
2023/07/18 05:31:08;;;;;;;4.20;2.50;;;;;;;;;;4931613;28;99893;-78
2023/07/18 05:33:35;;;;;;;10.13;1.85;;;;;;;;;;4933318;28;98918;-78
2023/07/18 05:36:01;;;;;;;2.70;1.98;;;;;;;;;;4932052;28;99132;-78
2023/07/18 05:38:28;;;;;;;4.93;2.10;;;;;;;;;;4932360;28;98677;-78
2023/07/18 05:40:54;;;;;;;6.45;2.70;;;;;;;;;;4932868;28;99050;-78
2023/07/18 05:43:21;;;;;;;6.75;2.35;;;;;;;;;;4934722;28;98234;-77
2023/07/18 05:45:48;;;;;;;4.65;2.42;;;;;;;;;;4924772;28;98907;-79
2023/07/18 05:48:15;;;;;;;6.35;2.42;;;;;;;;;;4913300;28;98246;-78
2023/07/18 05:50:41;;;;;;;5.82;2.38;;;;;;;;;;4920584;28;99397;-78
2023/07/18 05:53:08;;;;;;;6.63;2.15;;;;;;;;;;4932173;28;100445;-78
2023/07/18 05:55:34;;;;;;;4.70;2.75;;;;;;;;;;4932346;28;98570;-80
2023/07/18 05:58:00;;;;;;;12.20;2.78;;;;;;;;;;4931345;28;98752;-78
2023/07/18 06:00:27;;;;;;;7.30;2.50;;;;;;;;;;4931060;28;98132;-78
2023/07/18 06:02:53;;;;;;;4.70;2.50;;;;;;;;;;4931120;28;98271;-78
2023/07/18 06:05:24;;;;;;;7.70;2.53;;;;;;;;;;4932336;28;98589;-78
2023/07/18 06:07:51;;;;;;;4.70;2.25;;;;;;;;;;4930707;28;98392;-77
2023/07/18 06:10:17;;;;;;;3.42;2.00;;;;;;;;;;4929736;28;99073;-77
2023/07/18 06:12:44;;;;;;;14.38;2.78;;;;;;;;;;4931493;28;99150;-79
2023/07/18 06:15:10;;;;;;;7.50;2.13;;;;;;;;;;4930907;28;98267;-78
2023/07/18 06:17:37;;;;;;;5.85;2.30;;;;;;;;;;4921196;28;99691;-78
2023/07/18 06:20:09;;;;;;;3.65;2.03;;;;;;;;;;4929378;28;100038;-78
2023/07/18 06:22:35;;;;;;;7.22;2.65;;;;;;;;;;4931393;28;98244;-78
2023/07/18 06:25:02;;;;;;;4.15;2.17;;;;;;;;;;4929917;28;99584;-79
2023/07/18 06:27:28;;;;;;;7.88;2.55;;;;;;;;;;4933540;28;98267;-80
2023/07/18 06:29:55;;;;;;;5.03;2.35;;;;;;;;;;4931947;28;99630;-79
2023/07/18 06:32:21;;;;;;;4.68;2.50;;;;;;;;;;4930501;28;99937;-79
2023/07/18 06:34:48;;;;;;;5.95;2.17;;;;;;;;;;4927554;28;98415;-79
2023/07/18 06:37:14;;;;;;;6.63;2.35;;;;;;;;;;4922520;28;99184;-79
2023/07/18 06:39:41;;;;;;;4.45;2.30;;;;;;;;;;4922874;28;99383;-80
2023/07/18 06:42:10;;;;;;;7.20;2.35;;;;;;;;;;4928121;28;98659;-75
2023/07/18 06:44:37;;;;;;;5.43;2.13;;;;;;;;;;4924724;28;99762;-77
2023/07/18 06:47:04;;;;;;;9.35;2.13;;;;;;;;;;4930840;28;100975;-75
2023/07/18 06:49:31;;;;;;;8.57;2.05;;;;;;;;;;4930424;28;98682;-77
2023/07/18 06:51:58;;;;;;;7.90;2.38;;;;;;;;;;4931542;28;98886;-74
2023/07/18 06:54:24;;;;;;;3.78;1.90;;;;;;;;;;4930433;28;98292;-77
2023/07/18 06:56:51;;;;;;;6.20;3.00;;;;;;;;;;4931247;28;99380;-75
2023/07/18 06:59:17;;;;;;;8.98;2.90;;;;;;;;;;4928736;28;99313;-74
2023/07/18 07:01:43;;;;;;;6.88;2.25;;;;;;;;;;4928714;28;98362;-75
2023/07/18 07:04:10;;;;;;;3.97;2.13;;;;;;;;;;4931053;28;100388;-76
2023/07/18 07:06:41;;;;;;;7.72;2.97;;;;;;;;;;4930591;28;100108;-75
2023/07/18 07:09:15;;;;;;;6.65;2.22;;;;;;;;;;4929584;28;98163;-75
2023/07/18 07:11:41;;;;;;;4.15;2.13;;;;;;;;;;4926702;28;99940;-78
2023/07/18 07:14:08;;;;;;;5.22;1.77;;;;;;;;;;4938507;28;98379;-78
2023/07/18 07:16:35;;;;;;;6.43;2.22;;;;;;;;;;4934864;28;99306;-77
2023/07/18 07:19:02;;;;;;;9.00;2.83;;;;;;;;;;4933540;28;99394;-77
2023/07/18 07:21:29;;;;;;;6.28;2.20;;;;;;;;;;4915210;28;98300;-77
2023/07/18 07:23:55;;;;;;;4.28;2.03;;;;;;;;;;4926587;28;97897;-77
2023/07/18 07:26:24;;;;;;;8.13;2.75;;;;;;;;;;4936838;28;99008;-76
2023/07/18 07:28:50;;;;;;;5.55;2.72;;;;;;;;;;4930417;28;98448;-76
2023/07/18 07:31:17;;;;;;;7.33;2.30;;;;;;;;;;4933491;28;99457;-75
2023/07/18 07:33:44;;;;;;;9.27;2.17;;;;;;;;;;4946289;28;98355;-74
2023/07/18 07:36:10;;;;;;;5.93;2.15;;;;;;;;;;4933149;28;99857;-74
2023/07/18 07:38:37;;;;;;;6.47;2.72;;;;;;;;;;4930528;28;99767;-75
2023/07/18 07:41:04;;;;;;;7.63;3.03;;;;;;;;;;4930831;28;98240;-76
2023/07/18 07:43:31;;;;;;;8.40;2.55;;;;;;;;;;4917982;28;98533;-76
2023/07/18 07:45:57;;;;;;;7.25;2.58;;;;;;;;;;4911088;28;100287;-75
2023/07/18 07:48:24;;;;;;;8.25;2.35;;;;;;;;;;4910663;28;98235;-75
2023/07/18 07:50:50;;;;;;;9.95;2.30;;;;;;;;;;4920028;28;98606;-76
2023/07/18 07:53:17;;;;;;;7.30;2.22;;;;;;;;;;4932022;28;100207;-76
2023/07/18 07:55:43;;;;;;;8.85;2.08;;;;;;;;;;4921358;28;101465;-78
2023/07/18 07:58:10;;;;;;;5.97;2.55;;;;;;;;;;4915600;28;98888;-77
2023/07/18 08:00:37;;;;;;;11.48;2.28;;;;;;;;;;4920623;28;98397;-78
2023/07/18 08:03:03;;;;;;;8.73;1.95;;;;;;;;;;4931151;28;99359;-76
2023/07/18 08:05:30;;;;;;;7.95;1.85;;;;;;;;;;4927057;28;100061;-77
2023/07/18 08:07:56;;;;;;;2.80;1.67;;;;;;;;;;4910480;28;98292;-77
2023/07/18 08:10:23;;;;;;;5.70;1.50;;;;;;;;;;4910741;28;99893;-77
2023/07/18 08:12:49;;;;;;;5.80;1.95;;;;;;;;;;4912557;28;100102;-76
2023/07/18 08:15:16;;;;;;;6.57;1.70;;;;;;;;;;4926687;28;98150;-76
2023/07/18 08:17:43;;;;;;;4.22;1.50;;;;;;;;;;4923528;28;100673;-78
2023/07/18 08:20:10;;;;;;;4.05;1.20;;;;;;;;;;4929647;28;98349;-75
2023/07/18 08:22:36;;;;;;;3.95;1.45;;;;;;;;;;4929827;28;99373;-80
2023/07/18 08:25:03;;;;;;;5.75;1.50;;;;;;;;;;4929039;28;99874;-79
2023/07/18 08:27:30;;;;;;;4.72;1.38;;;;;;;;;;4929944;28;98240;-79
2023/07/18 08:29:57;;;;;;;3.88;1.58;;;;;;;;;;4930293;28;99913;-80
2023/07/18 08:32:23;;;;;;;6.13;1.77;;;;;;;;;;4928663;28;99879;-78
2023/07/18 08:34:52;;;;;;;4.30;1.70;;;;;;;;;;4931799;28;98407;-79
2023/07/18 08:37:19;;;;;;;3.88;1.30;;;;;;;;;;4909296;28;98945;-79
2023/07/18 08:39:45;;;;;;;2.85;1.30;;;;;;;;;;4910299;28;98192;-79
2023/07/18 08:42:12;;;;;;;6.30;1.77;;;;;;;;;;4918411;28;101253;-79
2023/07/18 08:44:39;;;;;;;4.72;1.30;;;;;;;;;;4929763;28;100061;-79
2023/07/18 08:47:06;;;;;;;8.88;1.50;;;;;;;;;;4929683;28;98200;-79
2023/07/18 08:49:35;;;;;;;5.78;1.33;;;;;;;;;;4929804;28;99888;-79
2023/07/18 08:52:04;;;;;;;3.30;1.33;;;;;;;;;;4929589;28;99894;-79
2023/07/18 08:54:33;;;;;;;5.95;1.67;;;;;;;;;;4929102;28;98491;-79
2023/07/18 08:57:01;;;;;;;6.63;1.27;;;;;;;;;;4932972;28;99809;-78
2023/07/18 08:59:27;;;;;;;3.70;1.70;;;;;;;;;;4928592;28;98417;-79
2023/07/18 09:01:54;;;;;;;4.18;1.15;;;;;;;;;;4927642;28;98459;-79
2023/07/18 09:04:21;;;;;;;5.10;1.75;;;;;;;;;;4929803;28;100157;-79
2023/07/18 09:06:49;;;;;;;3.08;1.50;;;;;;;;;;4927876;28;98714;-79
2023/07/18 09:09:21;;;;;;;5.20;1.55;;;;;;;;;;4929935;28;99702;-79
2023/07/18 09:12:00;;;;;;;2.58;1.27;;;;;;;;;;4923479;28;100380;-79
2023/07/18 09:14:34;;;;;;;4.93;1.40;;;;;;;;;;4931951;28;98353;-79
2023/07/18 09:17:04;;;;;;;4.55;1.52;;;;;;;;;;4932927;28;99624;-79
2023/07/18 09:19:35;;;;;;;1.98;1.10;;;;;;;;;;4935749;28;100548;-77
2023/07/18 09:22:02;;;;;;;6.53;1.70;;;;;;;;;;4932468;28;99696;-82
2023/07/18 09:24:32;;;;;;;4.65;1.80;;;;;;;;;;4932659;28;100313;-78
2023/07/18 09:26:58;;;;;;;5.10;1.30;;;;;;;;;;4931922;28;98143;-79
2023/07/18 09:29:25;;;;;;;5.43;1.40;;;;;;;;;;4931924;28;99680;-78
2023/07/18 09:31:51;;;;;;;5.60;1.50;;;;;;;;;;4932339;28;100043;-78
2023/07/18 09:34:19;;;;;;;7.35;2.00;;;;;;;;;;4930989;28;99273;-78
2023/07/18 09:36:58;;;;;;;7.38;1.80;;;;;;;;;;4927006;28;99355;-78
2023/07/18 09:39:26;;;;;;;8.55;1.52;;;;;;;;;;4931788;28;100096;-77
2023/07/18 09:41:53;;;;;;;2.70;1.30;;;;;;;;;;4934701;28;98236;-79
2023/07/18 09:44:21;;;;;;;6.07;1.60;;;;;;;;;;4927766;28;100304;-76
2023/07/18 09:46:59;;;;;;;7.35;2.28;;;;;;;;;;4928944;28;99125;-78
2023/07/18 09:49:25;;;;;;;3.22;1.15;;;;;;;;;;4923702;28;99404;-78
2023/07/18 09:52:03;;;;;;;7.63;1.35;;;;;;;;;;4927252;28;99928;-79
2023/07/18 09:54:33;;;;;;;3.43;1.70;;;;;;;;;;4932226;28;98204;-78
2023/07/18 09:57:02;;;;;;;3.97;1.65;;;;;;;;;;4915171;28;98426;-78
2023/07/18 09:59:29;;;;;;;6.13;2.20;;;;;;;;;;4930206;28;100082;-77
2023/07/18 10:01:56;;;;;;;2.90;1.15;;;;;;;;;;4932318;28;98254;-78
2023/07/18 10:04:22;;;;;;;3.95;1.45;;;;;;;;;;4928984;28;99573;-78
2023/07/18 10:06:49;;;;;;;2.30;1.48;;;;;;;;;;4931005;28;98293;-77
2023/07/18 10:09:16;;;;;;;5.30;1.35;;;;;;;;;;4932162;28;98605;-78
2023/07/18 10:11:58;;;;;;;3.75;1.42;;;;;;;;;;4929341;28;100190;-78
2023/07/18 10:14:25;;;;;;;;;;;;;;;;;;4926438;28;98519;-76
2023/07/18 10:16:54;;;;;;;4.65;1.52;;;;;;;;;;4926705;28;129007;-77
2023/07/18 10:19:23;;;;;;;11.38;1.92;;;;;;;;;;4921134;28;99735;-77
2023/07/18 10:21:57;;;;;;;7.30;1.60;;;;;;;;;;4928811;28;98155;-77
2023/07/18 10:24:24;;;;;;;6.72;1.83;;;;;;;;;;4927679;28;99632;-78
2023/07/18 10:26:52;;;;;;;2.30;1.40;;;;;;;;;;4934877;28;99919;-79
2023/07/18 10:29:18;;;;;;;3.90;1.20;;;;;;;;;;4921969;28;99239;-78
2023/07/18 10:31:45;;;;;;;3.08;1.55;;;;;;;;;;4922157;28;100539;-78
2023/07/18 10:34:14;;;;;;;3.45;1.55;;;;;;;;;;4912218;28;98240;-77
2023/07/18 10:36:53;;;;;;;3.65;1.48;;;;;;;;;;4931230;28;99433;-78
2023/07/18 10:39:34;;;;;;;6.93;1.50;;;;;;;;;;4927554;28;99855;-79
2023/07/18 10:42:30;;;;;;;1.80;1.00;;;;;;;;;;4930787;28;98236;-78
2023/07/18 10:45:06;;;;;;;2.83;1.10;;;;;;;;;;4930836;28;99718;-78
2023/07/18 10:47:35;;;;;;;5.47;1.77;;;;;;;;;;4933259;28;99594;-78
2023/07/18 10:50:03;;;;;;;4.25;1.55;;;;;;;;;;4927704;28;99814;-78
2023/07/18 10:52:30;;;;;;;4.70;1.70;;;;;;;;;;4925111;28;100330;-76
2023/07/18 10:54:57;;;;;;;5.05;1.52;;;;;;;;;;4925060;28;98998;-76
2023/07/18 10:57:24;;;;;;;4.80;1.98;;;;;;;;;;4926885;28;99691;-77
2023/07/18 10:59:52;;;;;;;7.82;1.70;;;;;;;;;;4930530;28;99362;-76
2023/07/18 11:02:19;;;;;;;3.90;1.67;;;;;;;;;;4930785;28;98445;-76
2023/07/18 11:04:46;;;;;;;3.70;1.40;;;;;;;;;;4916022;28;99149;-78
2023/07/18 11:07:13;;;;;;;5.50;1.40;;;;;;;;;;4912954;28;99063;-75
2023/07/18 11:09:42;;;;;;;5.93;1.88;;;;;;;;;;4929698;28;98237;-74
2023/07/18 11:12:17;;;;;;;1.30;1.00;;;;;;;;;;4928075;28;100092;-76
2023/07/18 11:14:44;;;;;;;4.97;1.40;;;;;;;;;;4926268;28;98135;-78
2023/07/18 11:17:14;;;;;;;5.18;1.70;;;;;;;;;;4930291;28;98577;-79
2023/07/18 11:19:41;;;;;;;8.65;1.30;;;;;;;;;;4927483;28;99966;-76
2023/07/18 11:22:10;;;;;;;3.42;1.50;;;;;;;;;;4928431;28;98427;-75
2023/07/18 11:24:37;;;;;;;4.07;1.50;;;;;;;;;;4930773;28;99645;-79
2023/07/18 11:27:10;;;;;;;3.40;1.40;;;;;;;;;;4927073;28;98440;-74
2023/07/18 11:29:36;;;;;;;3.83;1.63;;;;;;;;;;4921628;28;99024;-76
2023/07/18 11:32:03;;;;;;;4.10;1.30;;;;;;;;;;4912154;28;98290;-75
2023/07/18 11:34:30;;;;;;;6.75;1.13;;;;;;;;;;4918564;28;98447;-75
2023/07/18 11:36:56;;;;;;;2.47;1.27;;;;;;;;;;4928169;28;99578;-75
2023/07/18 11:39:23;;;;;;;2.30;1.08;;;;;;;;;;4927856;28;99843;-75
2023/07/18 11:41:51;;;;;;;3.70;1.05;;;;;;;;;;4927418;28;98363;-75
2023/07/18 11:44:25;;;;;;;3.50;1.15;;;;;;;;;;4927617;28;98711;-75
2023/07/18 11:46:52;;;;;;;3.95;1.23;;;;;;;;;;4929512;28;99708;-75
2023/07/18 11:49:31;;;;;;;4.32;1.33;;;;;;;;;;4929515;28;98341;-75
2023/07/18 11:51:59;;;;;;;2.45;1.25;;;;;;;;;;4930614;28;99747;-74
2023/07/18 11:54:26;;;;;;;2.75;1.20;;;;;;;;;;4933111;28;101504;-74
2023/07/18 11:56:53;;;;;;;1.48;1.25;;;;;;;;;;4929167;28;98478;-75
2023/07/18 11:59:21;;;;;;;7.88;1.58;;;;;;;;;;4929971;28;100073;-74
2023/07/18 12:01:47;;;;;;;3.42;1.48;;;;;;;;;;4930425;28;98176;-75
2023/07/18 12:04:14;;;;;;;2.72;1.17;;;;;;;;;;4929030;28;98542;-74
2023/07/18 12:06:41;;;;;;;3.08;1.05;;;;;;;;;;4929918;28;100512;-75
2023/07/18 12:09:07;;;;;;;5.93;1.60;;;;;;;;;;4930825;28;98104;-75
2023/07/18 12:11:34;;;;;;;3.55;1.52;;;;;;;;;;4929330;28;99499;-75
2023/07/18 12:14:02;;;;;;;5.70;1.70;;;;;;;;;;4930476;28;100281;-77
2023/07/18 12:16:28;;;;;;;8.65;1.58;;;;;;;;;;4933306;28;98197;-77
2023/07/18 12:18:55;;;;;;;2.88;1.55;;;;;;;;;;4923164;28;98958;-75
2023/07/18 12:21:21;;;;;;;4.82;1.42;;;;;;;;;;4927342;28;98994;-75
2023/07/18 12:23:48;;;;;;;1.55;1.00;;;;;;;;;;4929289;28;99551;-76
2023/07/18 12:26:14;;;;;;;2.97;1.30;;;;;;;;;;4929359;28;99970;-76
2023/07/18 12:28:41;;;;;;;2.95;1.23;;;;;;;;;;4930317;28;99038;-76
2023/07/18 12:31:07;;;;;;;3.60;1.40;;;;;;;;;;4929309;28;99616;-75
2023/07/18 12:33:34;;;;;;;4.30;1.40;;;;;;;;;;4929738;28;98868;-74
2023/07/18 12:36:00;;;;;;;5.07;1.58;;;;;;;;;;4930309;28;98254;-75
2023/07/18 12:38:27;;;;;;;4.00;1.45;;;;;;;;;;4932315;28;99437;-75
2023/07/18 12:40:55;;;;;;;2.65;1.33;;;;;;;;;;4932638;28;98311;-75
2023/07/18 12:43:22;;;;;;;3.20;1.40;;;;;;;;;;4933241;28;98736;-75
2023/07/18 12:45:48;;;;;;;5.00;1.50;;;;;;;;;;4931845;28;99312;-75
2023/07/18 12:48:16;;;;;;;3.30;1.60;;;;;;;;;;4932793;28;98232;-75
2023/07/18 12:50:42;;;;;;;3.85;1.48;;;;;;;;;;4932828;28;99409;-75
2023/07/18 12:53:09;;;;;;;2.72;1.30;;;;;;;;;;4932148;28;100518;-75
2023/07/18 12:55:35;;;;;;;2.40;1.45;;;;;;;;;;4932923;28;98168;-75
2023/07/18 12:58:02;;;;;;;3.83;1.20;;;;;;;;;;4936341;28;99033;-79
2023/07/18 13:00:28;;;;;;;4.22;1.25;;;;;;;;;;4932188;28;98220;-75
2023/07/18 13:02:55;;;;;;;4.40;1.45;;;;;;;;;;4933445;28;98400;-75
2023/07/18 13:05:22;;;;;;;1.95;1.02;;;;;;;;;;4932533;28;100586;-75
2023/07/18 13:07:49;;;;;;;2.13;1.33;;;;;;;;;;4932245;28;98234;-75
2023/07/18 13:10:15;;;;;;;2.45;1.40;;;;;;;;;;4923084;28;98572;-76
2023/07/18 13:12:41;;;;;;;3.30;1.27;;;;;;;;;;4913037;28;100298;-75
2023/07/18 13:15:08;;;;;;;4.65;1.75;;;;;;;;;;4912731;28;98433;-75
2023/07/18 13:17:34;;;;;;;4.22;1.23;;;;;;;;;;4913134;28;99479;-75
2023/07/18 13:20:01;;;;;;;4.57;1.50;;;;;;;;;;4921964;28;100229;-75
2023/07/18 13:22:27;;;;;;;2.58;1.27;;;;;;;;;;4932544;28;99352;-75
2023/07/18 13:24:54;;;;;;;4.53;1.30;;;;;;;;;;4932311;28;100285;-75
2023/07/18 13:27:20;;;;;;;2.50;1.00;;;;;;;;;;4931793;28;98291;-75
2023/07/18 13:29:47;;;;;;;4.88;1.15;;;;;;;;;;4932822;28;99715;-76
2023/07/18 13:32:13;;;;;;;1.67;0.90;;;;;;;;;;4932100;28;99918;-75
2023/07/18 13:34:40;;;;;;;2.88;0.98;;;;;;;;;;4930405;28;98052;-75
2023/07/18 13:37:07;;;;;;;2.15;1.60;;;;;;;;;;4932886;28;98539;-75
2023/07/18 13:39:33;;;;;;;1.63;1.08;;;;;;;;;;4929361;28;100483;-79
2023/07/18 13:42:00;;;;;;;3.03;1.17;;;;;;;;;;4934844;28;98224;-76
2023/07/18 13:44:26;;;;;;;5.65;1.33;;;;;;;;;;4932315;28;98987;-77
2023/07/18 13:46:52;;;;;;;1.95;1.35;;;;;;;;;;4937753;28;98328;-77
2023/07/18 13:49:19;;;;;;;1.65;1.15;;;;;;;;;;4949381;28;99817;-77
2023/07/18 13:51:46;;;;;;;1.45;0.80;;;;;;;;;;4932269;28;99862;-76
2023/07/18 13:54:12;;;;;;;1.85;1.30;;;;;;;;;;4931519;28;98283;-77
2023/07/18 13:56:39;;;;;;;4.40;1.40;;;;;;;;;;4931527;28;99608;-77
2023/07/18 13:59:05;;;;;;;3.95;1.38;;;;;;;;;;4931615;28;98958;-77
2023/07/18 14:01:32;;;;;;;4.07;1.13;;;;;;;;;;4932127;28;98225;-77
2023/07/18 14:03:58;;;;;;;6.68;1.48;;;;;;;;;;4934873;28;99129;-77
2023/07/18 14:06:26;;;;;;;1.35;1.13;;;;;;;;;;4931476;28;98263;-77
2023/07/18 14:08:52;;;;;;;2.00;0.88;;;;;;;;;;4932004;28;98579;-77
2023/07/18 14:11:19;;;;;;;4.13;1.40;;;;;;;;;;4930897;28;100118;-77
2023/07/18 14:13:46;;;;;;;3.08;1.30;;;;;;;;;;4932329;28;98090;-79
2023/07/18 14:16:13;;;;;;;5.15;1.40;;;;;;;;;;4931452;28;99586;-78
2023/07/18 14:18:41;;;;;;;4.15;1.25;;;;;;;;;;4932262;28;99288;-77
2023/07/18 14:21:07;;;;;;;1.90;1.08;;;;;;;;;;4917799;28;99149;-77
2023/07/18 14:23:34;;;;;;;2.22;1.08;;;;;;;;;;4924738;28;99590;-78
2023/07/18 14:26:03;;;;;;;2.33;1.33;;;;;;;;;;4935137;28;100167;-78
2023/07/18 14:28:29;;;;;;;6.53;1.67;;;;;;;;;;4931956;28;99518;-79
2023/07/18 14:30:55;;;;;;;2.08;1.27;;;;;;;;;;4931028;28;99866;-77
2023/07/18 14:33:22;;;;;;;2.35;1.48;;;;;;;;;;4931830;28;98232;-76
2023/07/18 14:35:49;;;;;;;1.52;1.10;;;;;;;;;;4931969;28;100064;-77
2023/07/18 14:38:16;;;;;;;2.10;1.23;;;;;;;;;;4930681;28;100147;-78
2023/07/18 14:40:43;;;;;;;1.80;1.27;;;;;;;;;;4932196;28;98199;-78
2023/07/18 14:43:09;;;;;;;1.27;1.05;;;;;;;;;;4931802;28;98528;-77